Time;durP1;ratioP1;P1;durP2;ratioP2;P2;SDS_P1;SDS_P2;PMS_P1;PMS_P2;Temp;Humidity;BMP_temperature;BMP_pressure;BME280_temperature;BME280_humidity;BME280_pressure;Samples;Min_cycle;Max_cycle;Signal;HPM_P1;HPM_P2
2023/04/02 00:02:16;;;;;;;;;;;7.40;99.90;;;;;;5079394;28;20031;-72
2023/04/02 00:04:41;;;;;;;0.75;0.75;;;7.50;99.90;;;;;;5075390;28;19916;-74
2023/04/02 00:07:30;;;;;;;0.10;0.10;;;7.50;99.90;;;;;;5070683;28;20655;-73
2023/04/02 00:09:56;;;;;;;5.78;0.98;;;7.50;99.90;;;;;;5077063;28;20043;-76
2023/04/02 00:12:22;;;;;;;0.30;0.30;;;7.50;99.90;;;;;;5075291;28;20584;-73
2023/04/02 00:14:52;;;;;;;0.20;0.20;;;7.50;99.90;;;;;;5074977;28;20029;-73
2023/04/02 00:17:21;;;;;;;0.40;0.40;;;7.50;99.90;;;;;;5076983;28;20040;-74
2023/04/02 00:19:57;;;;;;;0.10;0.10;;;7.50;99.90;;;;;;5071145;28;20119;-75
2023/04/02 00:22:33;;;;;;;1.48;1.40;;;7.50;99.90;;;;;;5072251;28;20020;-73
2023/04/02 00:25:02;;;;;;;0.10;0.10;;;7.40;99.90;;;;;;5079877;28;20036;-73
2023/04/02 00:27:30;;;;;;;4.97;1.45;;;7.40;99.90;;;;;;5060434;28;20449;-75
2023/04/02 00:29:57;;;;;;;0.10;0.10;;;7.30;99.90;;;;;;5078656;28;20673;-73
2023/04/02 00:32:30;;;;;;;0.25;0.25;;;7.40;99.90;;;;;;5076152;28;20027;-73
2023/04/02 00:34:57;;;;;;;0.10;0.10;;;7.40;99.90;;;;;;5089951;28;20042;-74
2023/04/02 00:37:26;;;;;;;0.30;0.30;;;7.30;99.90;;;;;;5096255;28;20039;-76
2023/04/02 00:40:00;;;;;;;0.10;0.10;;;7.40;99.90;;;;;;5100869;28;20081;-73
2023/04/02 00:42:29;;;;;;;0.10;0.10;;;7.40;99.90;;;;;;5101121;28;20023;-75
2023/04/02 00:44:57;;;;;;;0.15;0.15;;;7.40;99.90;;;;;;5097616;28;20028;-74
2023/04/02 00:47:26;;;;;;;2.33;1.15;;;7.30;99.90;;;;;;5094945;28;20030;-74
2023/04/02 00:50:23;;;;;;;0.10;0.10;;;7.40;99.90;;;;;;5102622;28;20026;-75
2023/04/02 00:52:52;;;;;;;0.10;0.10;;;7.40;99.90;;;;;;5091483;28;20044;-72
2023/04/02 00:55:32;;;;;;;0.10;0.10;;;7.40;99.90;;;;;;5096527;28;20023;-72
2023/04/02 00:58:00;;;;;;;2.38;0.85;;;7.30;99.90;;;;;;5098197;28;20109;-73
2023/04/02 01:00:34;;;;;;;2.10;1.23;;;7.20;99.90;;;;;;5092900;28;20024;-76
2023/04/02 01:03:18;;;;;;;0.10;0.10;;;7.20;99.90;;;;;;5087259;28;20040;-74
2023/04/02 01:06:14;;;;;;;0.10;0.10;;;7.10;99.90;;;;;;5093282;28;20516;-73
2023/04/02 01:09:10;;;;;;;0.63;0.52;;;7.30;99.90;;;;;;5093183;28;20051;-73
2023/04/02 01:11:41;;;;;;;1.50;0.82;;;7.20;99.90;;;;;;5090083;28;20135;-75
2023/04/02 01:14:12;;;;;;;0.10;0.10;;;7.30;99.90;;;;;;5094841;28;20430;-74
2023/04/02 01:16:45;;;;;;;3.10;0.73;;;7.40;99.90;;;;;;5100192;28;20562;-74
2023/04/02 01:19:26;;;;;;;0.10;0.10;;;7.40;99.90;;;;;;5094288;28;20483;-73
2023/04/02 01:22:08;;;;;;;1.65;0.55;;;7.50;99.90;;;;;;5092523;28;20020;-76
2023/04/02 01:24:36;;;;;;;0.63;0.63;;;7.50;99.90;;;;;;5102282;28;20046;-73
2023/04/02 01:27:07;;;;;;;0.20;0.20;;;7.40;99.90;;;;;;5100142;28;20042;-73
2023/04/02 01:29:45;;;;;;;0.30;0.30;;;7.50;99.90;;;;;;5102757;28;20035;-74
2023/04/02 01:32:13;;;;;;;0.20;0.20;;;7.50;99.90;;;;;;5095861;28;20032;-73
2023/04/02 01:34:40;;;;;;;0.30;0.30;;;7.50;99.90;;;;;;5093646;28;20075;-73
2023/04/02 01:37:26;;;;;;;0.30;0.30;;;7.50;99.90;;;;;;5091970;28;20060;-76
2023/04/02 01:40:34;;;;;;;0.10;0.10;;;7.50;99.90;;;;;;5096895;28;20024;-73
2023/04/02 01:43:10;;;;;;;0.10;0.10;;;7.30;99.90;;;;;;5082900;28;20109;-74
2023/04/02 01:45:36;;;;;;;1.75;1.08;;;7.20;99.90;;;;;;5102905;28;20031;-75
2023/04/02 01:48:08;;;;;;;3.00;1.55;;;7.30;99.90;;;;;;5103891;28;20865;-73
2023/04/02 01:50:37;;;;;;;0.45;0.45;;;7.20;99.90;;;;;;5098329;28;20382;-72
2023/04/02 01:53:07;;;;;;;0.80;0.80;;;7.30;99.90;;;;;;5102806;28;20123;-73
2023/04/02 01:55:54;;;;;;;1.25;1.20;;;7.20;99.90;;;;;;5092592;28;20494;-74
2023/04/02 01:58:26;;;;;;;0.10;0.10;;;7.20;99.90;;;;;;5097182;28;20087;-73
2023/04/02 02:00:55;;;;;;;0.20;0.20;;;7.10;99.90;;;;;;5091204;28;20069;-75
2023/04/02 02:03:22;;;;;;;0.45;0.45;;;7.10;99.90;;;;;;5098211;28;20032;-75
2023/04/02 02:05:48;;;;;;;0.10;0.10;;;7.20;99.90;;;;;;5092107;28;20040;-74
2023/04/02 02:08:35;;;;;;;0.50;0.50;;;7.30;99.90;;;;;;5088263;28;20030;-73
2023/04/02 02:11:01;;;;;;;0.10;0.10;;;7.40;99.90;;;;;;5101264;27;20487;-73
2023/04/02 02:13:27;;;;;;;0.10;0.10;;;7.30;99.90;;;;;;5101802;28;20037;-72
2023/04/02 02:15:57;;;;;;;0.30;0.30;;;7.30;99.90;;;;;;5095845;28;20116;-74
2023/04/02 02:18:24;;;;;;;0.30;0.30;;;7.30;99.90;;;;;;5098624;28;20122;-74
2023/04/02 02:20:51;;;;;;;13.10;1.40;;;7.30;99.90;;;;;;5101859;28;20124;-73
2023/04/02 02:23:18;;;;;;;0.65;0.45;;;7.40;99.90;;;;;;5091734;28;20039;-75
2023/04/02 02:25:44;;;;;;;;;;;7.40;99.90;;;;;;5095793;28;20053;-74
2023/04/02 02:28:30;;;;;;;0.38;0.38;;;7.50;99.90;;;;;;5099023;28;19916;-73
2023/04/02 02:31:04;;;;;;;1.02;1.02;;;7.40;99.90;;;;;;5074620;28;20075;-75
2023/04/02 02:33:47;;;;;;;0.10;0.10;;;7.30;99.90;;;;;;5087457;28;20052;-73
2023/04/02 02:36:32;;;;;;;0.65;0.30;;;7.30;99.90;;;;;;5077234;28;20087;-73
2023/04/02 02:39:24;;;;;;;0.40;0.40;;;7.20;99.90;;;;;;5075417;28;20059;-73
2023/04/02 02:42:01;;;;;;;0.10;0.10;;;7.10;99.90;;;;;;5054731;28;20064;-74
2023/04/02 02:44:30;;;;;;;4.03;0.93;;;7.20;99.90;;;;;;5079510;28;20126;-73
2023/04/02 02:47:07;;;;;;;1.63;1.52;;;7.20;99.90;;;;;;5071843;28;20032;-75
2023/04/02 02:49:38;;;;;;;0.10;0.10;;;7.20;99.90;;;;;;5069885;28;20037;-73
2023/04/02 02:52:09;;;;;;;0.10;0.10;;;7.30;99.90;;;;;;5076234;28;20048;-74
2023/04/02 02:54:43;;;;;;;0.10;0.10;;;7.20;99.90;;;;;;5068734;28;20060;-73
2023/04/02 02:57:14;;;;;;;0.10;0.10;;;7.20;99.90;;;;;;5079837;28;20027;-73
2023/04/02 02:59:41;;;;;;;0.10;0.10;;;7.30;99.90;;;;;;5076073;28;20055;-73
2023/04/02 03:02:07;;;;;;;0.63;0.40;;;7.20;99.90;;;;;;5067791;28;20078;-73
2023/04/02 03:04:34;;;;;;;0.15;0.15;;;7.40;99.90;;;;;;5078479;28;20426;-74
2023/04/02 03:07:02;;;;;;;2.75;0.43;;;7.40;99.90;;;;;;5073667;28;20044;-73
2023/04/02 03:09:34;;;;;;;0.45;0.45;;;7.40;99.90;;;;;;5076100;28;20034;-74
2023/04/02 03:12:11;;;;;;;0.73;0.73;;;7.40;99.90;;;;;;5080325;28;20585;-75
2023/04/02 03:15:05;;;;;;;0.85;0.38;;;7.30;99.90;;;;;;5077034;28;20028;-75
2023/04/02 03:17:42;;;;;;;0.10;0.10;;;7.40;99.90;;;;;;5079972;28;20024;-74
2023/04/02 03:20:18;;;;;;;0.20;0.20;;;7.30;99.90;;;;;;5080202;28;20135;-74
2023/04/02 03:23:20;;;;;;;0.10;0.10;;;7.40;99.90;;;;;;5074343;28;20028;-74
2023/04/02 03:26:07;;;;;;;0.10;0.10;;;7.40;99.90;;;;;;5041027;28;20126;-73
2023/04/02 03:28:40;;;;;;;0.10;0.10;;;7.30;99.90;;;;;;5075503;28;20394;-74
2023/04/02 03:31:10;;;;;;;0.10;0.10;;;7.30;99.90;;;;;;5074728;28;20024;-76
2023/04/02 03:33:43;;;;;;;0.40;0.40;;;7.40;99.90;;;;;;5076447;28;20151;-76
2023/04/02 03:36:19;;;;;;;0.10;0.10;;;7.40;99.90;;;;;;5074591;28;20114;-73
2023/04/02 03:39:11;;;;;;;0.10;0.10;;;7.40;99.90;;;;;;5054292;28;20028;-73
2023/04/02 03:41:44;;;;;;;0.10;0.10;;;7.50;99.90;;;;;;5064094;28;20097;-73
2023/04/02 03:44:24;;;;;;;0.73;0.65;;;7.40;99.90;;;;;;5076394;28;20495;-73
2023/04/02 03:46:57;;;;;;;0.20;0.20;;;7.40;99.90;;;;;;5080427;28;20044;-73
2023/04/02 03:49:51;;;;;;;3.03;1.00;;;7.50;99.90;;;;;;5075215;28;20032;-73
2023/04/02 03:52:24;;;;;;;0.20;0.20;;;7.40;99.90;;;;;;5078784;28;20698;-73
2023/04/02 03:54:50;;;;;;;0.75;0.60;;;7.60;99.90;;;;;;5063419;28;20028;-73
2023/04/02 03:57:26;;;;;;;0.85;0.85;;;7.50;99.90;;;;;;5074414;28;20025;-73
2023/04/02 04:00:15;;;;;;;0.10;0.10;;;7.40;99.90;;;;;;5072011;28;20032;-73
2023/04/02 04:02:57;;;;;;;0.20;0.20;;;7.40;99.90;;;;;;5070981;28;20032;-73
2023/04/02 04:05:36;;;;;;;0.20;0.20;;;7.40;99.90;;;;;;5062676;28;20398;-73
2023/04/02 04:08:11;;;;;;;4.18;0.47;;;7.50;99.90;;;;;;5065612;28;20016;-73
2023/04/02 04:10:37;;;;;;;0.10;0.10;;;7.40;99.90;;;;;;5074540;28;20047;-73
2023/04/02 04:13:13;;;;;;;0.10;0.10;;;7.40;99.90;;;;;;5056685;28;20039;-73
2023/04/02 04:15:57;;;;;;;0.73;0.73;;;7.40;99.90;;;;;;5077988;28;20046;-73
2023/04/02 04:18:40;;;;;;;0.10;0.10;;;7.30;99.90;;;;;;5081680;28;20028;-74
2023/04/02 04:21:28;;;;;;;0.50;0.38;;;7.40;99.90;;;;;;5070665;28;20020;-75
2023/04/02 04:23:56;;;;;;;0.10;0.10;;;7.40;99.90;;;;;;5077982;28;20650;-74
2023/04/02 04:26:29;;;;;;;5.82;1.27;;;7.40;99.90;;;;;;5060682;28;20032;-74
2023/04/02 04:29:14;;;;;;;0.52;0.52;;;7.30;99.90;;;;;;5071637;28;20423;-73
2023/04/02 04:31:45;;;;;;;0.20;0.20;;;7.30;99.90;;;;;;5071202;28;20040;-72
2023/04/02 04:34:37;;;;;;;0.10;0.10;;;7.30;99.90;;;;;;5091234;28;20040;-73
2023/04/02 04:37:06;;;;;;;0.15;0.15;;;7.30;99.90;;;;;;5096092;28;20095;-72
2023/04/02 04:39:37;;;;;;;0.10;0.10;;;7.30;99.90;;;;;;5096889;28;20036;-74
2023/04/02 04:42:05;;;;;;;0.15;0.15;;;7.30;99.90;;;;;;5104805;28;20026;-75
2023/04/02 04:44:42;;;;;;;0.10;0.10;;;7.20;99.90;;;;;;5099253;28;20039;-73
2023/04/02 04:47:25;;;;;;;0.10;0.10;;;7.40;99.90;;;;;;5102685;28;20104;-75
2023/04/02 04:49:59;;;;;;;0.10;0.10;;;7.30;99.90;;;;;;5101382;28;20040;-74
2023/04/02 04:52:28;;;;;;;0.10;0.10;;;7.30;99.90;;;;;;5099210;28;20035;-73
2023/04/02 04:54:55;;;;;;;0.10;0.10;;;7.30;99.90;;;;;;5104148;28;20020;-72
2023/04/02 04:57:36;;;;;;;0.20;0.20;;;7.20;99.90;;;;;;5104093;28;20040;-74
2023/04/02 05:00:37;;;;;;;0.25;0.25;;;7.30;99.90;;;;;;5101982;28;20043;-73
2023/04/02 05:03:12;;;;;;;0.95;0.95;;;7.20;99.90;;;;;;5070776;28;20067;-74
2023/04/02 05:05:39;;;;;;;0.20;0.20;;;7.30;99.90;;;;;;5102497;28;20092;-76
2023/04/02 05:08:26;;;;;;;0.28;0.28;;;7.30;99.90;;;;;;5095689;28;20035;-73
2023/04/02 05:11:00;;;;;;;4.28;1.35;;;7.30;99.90;;;;;;5100752;28;20024;-73
2023/04/02 05:13:35;;;;;;;0.10;0.10;;;7.30;99.90;;;;;;5097239;28;20863;-73
2023/04/02 05:16:14;;;;;;;0.10;0.10;;;7.20;99.90;;;;;;5088153;28;20040;-74
2023/04/02 05:18:48;;;;;;;0.45;0.45;;;7.20;99.90;;;;;;5092247;28;20043;-73
2023/04/02 05:21:21;;;;;;;1.08;0.65;;;7.20;99.90;;;;;;5093315;28;20024;-73
2023/04/02 05:23:59;;;;;;;6.72;1.40;;;7.20;99.90;;;;;;5098760;28;20028;-76
2023/04/02 05:26:31;;;;;;;0.10;0.10;;;7.20;99.90;;;;;;5100132;28;20032;-74
2023/04/02 05:29:17;;;;;;;0.30;0.30;;;7.40;99.90;;;;;;5105024;28;20386;-74
2023/04/02 05:32:16;;;;;;;0.10;0.10;;;7.40;99.90;;;;;;5101803;28;20125;-74
2023/04/02 05:34:46;;;;;;;0.32;0.32;;;7.30;99.90;;;;;;5081335;28;20044;-73
2023/04/02 05:37:21;;;;;;;0.43;0.38;;;7.30;99.90;;;;;;5093716;28;20055;-74
2023/04/02 05:39:54;;;;;;;0.20;0.20;;;7.30;99.90;;;;;;5095112;28;21136;-75
2023/04/02 05:42:28;;;;;;;0.10;0.10;;;7.30;99.90;;;;;;5100798;28;20596;-73
2023/04/02 05:45:28;;;;;;;0.52;0.52;;;7.40;99.90;;;;;;5099860;28;20024;-74
2023/04/02 05:48:00;;;;;;;0.38;0.38;;;7.50;99.90;;;;;;5098558;28;20446;-74
2023/04/02 05:50:39;;;;;;;0.10;0.10;;;7.40;99.90;;;;;;5100468;28;20020;-77
2023/04/02 05:53:18;;;;;;;0.50;0.50;;;7.30;99.90;;;;;;5098661;28;20097;-73
2023/04/02 05:55:58;;;;;;;0.20;0.20;;;7.40;99.90;;;;;;5104721;28;20031;-73
2023/04/02 05:58:38;;;;;;;0.20;0.20;;;7.40;99.90;;;;;;5089846;28;20688;-76
2023/04/02 06:01:20;;;;;;;0.20;0.20;;;7.40;99.90;;;;;;5099543;28;20024;-73
2023/04/02 06:04:09;;;;;;;0.40;0.40;;;7.40;99.90;;;;;;5100140;28;20385;-78
2023/04/02 06:06:41;;;;;;;0.10;0.10;;;7.40;99.90;;;;;;5101204;28;20070;-73
2023/04/02 06:09:34;;;;;;;0.10;0.10;;;7.50;99.90;;;;;;5094998;28;20012;-74
2023/04/02 06:12:11;;;;;;;0.10;0.10;;;7.50;99.90;;;;;;5082985;28;20047;-74
2023/04/02 06:14:37;;;;;;;0.10;0.10;;;7.40;99.90;;;;;;5096383;28;20136;-73
2023/04/02 06:17:02;;;;;;;0.40;0.40;;;7.60;99.90;;;;;;5101576;28;20988;-73
2023/04/02 06:19:32;;;;;;;0.20;0.20;;;7.60;99.90;;;;;;5093376;28;20035;-74
2023/04/02 06:22:09;;;;;;;0.15;0.15;;;7.70;99.90;;;;;;5091976;28;20020;-73
2023/04/02 06:24:37;;;;;;;0.20;0.20;;;7.60;99.90;;;;;;5096834;28;20032;-75
2023/04/02 06:27:05;;;;;;;1.45;1.17;;;7.60;99.90;;;;;;5094326;28;20037;-73
2023/04/02 06:29:37;;;;;;;0.10;0.10;;;7.60;99.90;;;;;;5096134;28;20593;-74
2023/04/02 06:32:05;;;;;;;0.10;0.10;;;7.50;99.90;;;;;;5091163;28;20674;-75
2023/04/02 06:34:31;;;;;;;1.45;1.45;;;7.50;99.90;;;;;;5098314;28;20044;-74
2023/04/02 06:37:11;;;;;;;1.45;1.35;;;7.50;99.90;;;;;;5096547;28;20391;-73
2023/04/02 06:39:37;;;;;;;1.83;1.48;;;7.60;99.90;;;;;;5097826;28;20921;-74
2023/04/02 06:42:09;;;;;;;1.52;1.45;;;7.70;99.90;;;;;;5095252;28;20019;-74
2023/04/02 06:44:36;;;;;;;2.20;1.75;;;7.60;99.90;;;;;;5091566;28;20042;-75
2023/04/02 06:47:12;;;;;;;1.55;1.45;;;7.80;99.90;;;;;;5099320;28;20138;-76
2023/04/02 06:49:49;;;;;;;0.52;0.52;;;8.00;99.90;;;;;;5093775;28;20032;-81
2023/04/02 06:52:31;;;;;;;0.98;0.75;;;7.90;99.90;;;;;;5093952;28;20016;-74
2023/04/02 06:54:57;;;;;;;0.40;0.40;;;8.00;99.90;;;;;;5095989;28;20016;-76
2023/04/02 06:57:24;;;;;;;0.10;0.10;;;8.00;99.90;;;;;;5099727;28;20024;-76
2023/04/02 06:59:50;;;;;;;0.30;0.30;;;8.10;99.90;;;;;;5088691;28;20107;-78
2023/04/02 07:02:27;;;;;;;0.10;0.10;;;8.20;99.90;;;;;;5087328;28;20077;-80
2023/04/02 07:04:59;;;;;;;0.30;0.30;;;8.20;99.90;;;;;;5091562;28;20035;-77
2023/04/02 07:07:24;;;;;;;0.10;0.10;;;8.20;99.90;;;;;;5095320;28;20206;-77
2023/04/02 07:09:50;;;;;;;0.10;0.10;;;8.30;99.90;;;;;;5100580;28;20027;-75
2023/04/02 07:12:21;;;;;;;0.10;0.10;;;8.20;99.90;;;;;;5098765;28;20410;-76
2023/04/02 07:14:47;;;;;;;0.13;0.13;;;8.20;99.90;;;;;;5085614;28;20050;-74
2023/04/02 07:17:17;;;;;;;0.50;0.50;;;8.30;99.90;;;;;;5096821;28;20104;-76
2023/04/02 07:19:44;;;;;;;0.40;0.40;;;8.40;99.90;;;;;;5098379;28;20564;-75
2023/04/02 07:22:10;;;;;;;0.95;0.77;;;8.40;99.90;;;;;;5095205;28;20031;-77
2023/04/02 07:24:36;;;;;;;2.30;1.27;;;8.40;99.90;;;;;;5091320;28;20020;-76
2023/04/02 07:27:02;;;;;;;0.10;0.10;;;8.50;99.90;;;;;;5092086;28;20563;-74
2023/04/02 07:29:27;;;;;;;0.10;0.10;;;8.40;99.90;;;;;;5093067;28;20034;-78
2023/04/02 07:31:53;;;;;;;1.55;0.95;;;8.30;99.90;;;;;;5096933;28;20024;-74
2023/04/02 07:34:19;;;;;;;2.72;1.45;;;8.30;99.90;;;;;;5099148;28;20128;-76
2023/04/02 07:36:45;;;;;;;0.10;0.10;;;8.10;99.90;;;;;;5098462;28;20217;-74
2023/04/02 07:39:11;;;;;;;0.10;0.10;;;8.20;99.90;;;;;;5098630;28;20028;-76
2023/04/02 07:41:58;;;;;;;0.17;0.17;;;8.40;99.90;;;;;;5095241;28;20015;-74
2023/04/02 07:44:23;;;;;;;0.10;0.10;;;8.60;99.90;;;;;;5097585;28;20031;-75
2023/04/02 07:46:49;;;;;;;0.75;0.75;;;8.60;99.90;;;;;;5098475;28;20118;-77
2023/04/02 07:49:15;;;;;;;0.20;0.20;;;8.70;99.90;;;;;;5096649;28;20032;-79
2023/04/02 07:51:41;;;;;;;0.30;0.30;;;8.60;99.90;;;;;;5083700;28;20131;-78
2023/04/02 07:54:09;;;;;;;0.63;0.63;;;8.70;99.90;;;;;;5093666;28;20551;-76
2023/04/02 07:56:35;;;;;;;0.25;0.25;;;8.70;99.90;;;;;;5090641;28;20753;-77
2023/04/02 07:59:01;;;;;;;6.10;3.97;;;8.80;99.90;;;;;;5094435;28;20573;-75
2023/04/02 08:01:28;;;;;;;0.35;0.35;;;8.80;99.90;;;;;;5095845;28;20031;-75
2023/04/02 08:03:56;;;;;;;5.18;2.38;;;8.90;99.90;;;;;;5093334;28;20016;-74
2023/04/02 08:06:23;;;;;;;0.35;0.30;;;8.80;99.90;;;;;;5095807;28;20120;-75
2023/04/02 08:08:48;;;;;;;;;;;8.80;99.90;;;;;;5096512;28;20028;-74
2023/04/02 08:11:15;;;;;;;0.53;0.53;;;8.90;99.90;;;;;;5092532;28;19919;-74
2023/04/02 08:13:40;;;;;;;0.25;0.25;;;9.20;99.90;;;;;;5091601;28;20565;-74
2023/04/02 08:16:07;;;;;;;0.15;0.15;;;9.20;99.90;;;;;;5094500;28;20028;-75
2023/04/02 08:18:33;;;;;;;1.08;0.65;;;9.50;99.90;;;;;;5093692;28;20084;-75
2023/04/02 08:20:59;;;;;;;1.20;1.20;;;9.70;99.90;;;;;;5093866;28;20501;-77
2023/04/02 08:23:25;;;;;;;1.70;1.17;;;9.70;99.90;;;;;;5091859;28;20028;-76
2023/04/02 08:25:52;;;;;;;0.40;0.40;;;9.80;99.90;;;;;;5090109;28;20036;-75
2023/04/02 08:28:19;;;;;;;0.10;0.10;;;9.80;99.90;;;;;;5090372;28;20036;-75
2023/04/02 08:30:45;;;;;;;0.30;0.30;;;9.50;99.90;;;;;;5088089;28;20027;-75
2023/04/02 08:33:11;;;;;;;0.10;0.10;;;9.60;99.90;;;;;;5100650;28;20073;-75
2023/04/02 08:35:36;;;;;;;0.10;0.10;;;9.80;99.90;;;;;;5087404;28;20023;-75
2023/04/02 08:38:02;;;;;;;0.45;0.45;;;9.80;99.90;;;;;;5086089;28;20039;-75
2023/04/02 08:40:34;;;;;;;0.15;0.15;;;10.10;99.90;;;;;;5094364;28;20059;-75
2023/04/02 08:43:37;;;;;;;0.43;0.43;;;10.40;99.90;;;;;;5096546;28;20048;-76
2023/04/02 08:46:24;;;;;;;0.30;0.30;;;10.30;99.90;;;;;;5090487;28;20105;-75
2023/04/02 08:49:03;;;;;;;0.28;0.28;;;10.30;99.90;;;;;;5090981;28;20026;-76
2023/04/02 08:51:34;;;;;;;0.10;0.10;;;10.20;99.90;;;;;;5094051;28;20031;-74
2023/04/02 08:54:21;;;;;;;0.10;0.10;;;10.00;99.90;;;;;;5087183;28;20027;-77
2023/04/02 08:57:20;;;;;;;0.43;0.43;;;10.00;99.90;;;;;;5093113;28;20821;-75
2023/04/02 08:59:46;;;;;;;0.10;0.10;;;10.20;99.90;;;;;;5076395;28;20113;-77
2023/04/02 09:02:24;;;;;;;0.23;0.23;;;10.00;99.90;;;;;;5092863;28;20019;-75
2023/04/02 09:04:50;;;;;;;0.10;0.10;;;10.30;99.90;;;;;;5095478;28;20142;-76
2023/04/02 09:07:16;;;;;;;0.10;0.10;;;10.30;99.90;;;;;;5093776;28;20043;-76
2023/04/02 09:09:47;;;;;;;0.10;0.10;;;10.00;99.90;;;;;;5099631;28;20070;-73
2023/04/02 09:12:28;;;;;;;0.60;0.40;;;10.40;99.90;;;;;;5100466;28;20031;-74
2023/04/02 09:15:09;;;;;;;0.30;0.30;;;10.50;99.90;;;;;;5097733;28;20516;-77
2023/04/02 09:17:36;;;;;;;0.20;0.20;;;10.90;99.90;;;;;;5091694;28;20028;-77
2023/04/02 09:20:21;;;;;;;0.08;0.08;;;11.10;99.90;;;;;;5092864;28;20064;-76
2023/04/02 09:22:50;;;;;;;0.00;0.00;;;11.20;99.90;;;;;;5095802;28;20586;-74
2023/04/02 09:25:33;;;;;;;0.45;0.45;;;11.50;99.90;;;;;;5093938;28;20052;-75
2023/04/02 09:28:04;;;;;;;0.20;0.20;;;12.10;99.90;;;;;;5097082;28;20076;-74
2023/04/02 09:30:48;;;;;;;0.30;0.30;;;12.70;99.90;;;;;;5100891;28;20331;-75
2023/04/02 09:33:13;;;;;;;0.30;0.30;;;12.20;99.90;;;;;;5099416;28;20055;-74
2023/04/02 09:35:49;;;;;;;0.98;0.98;;;12.10;99.90;;;;;;5095225;28;20218;-75
2023/04/02 09:38:31;;;;;;;0.30;0.30;;;13.40;99.90;;;;;;5099722;28;20148;-73
2023/04/02 09:41:04;;;;;;;1.10;1.05;;;13.60;99.90;;;;;;5100849;28;20016;-74
2023/04/02 09:43:35;;;;;;;0.05;0.05;;;13.50;99.90;;;;;;5096523;28;20038;-73
2023/04/02 09:46:16;;;;;;;0.68;0.68;;;12.90;99.90;;;;;;5098101;28;20036;-74
2023/04/02 09:49:00;;;;;;;0.25;0.20;;;12.60;99.90;;;;;;5095533;28;20042;-75
2023/04/02 09:51:30;;;;;;;2.33;0.68;;;13.50;99.90;;;;;;5094270;28;20024;-75
2023/04/02 09:54:01;;;;;;;0.10;0.10;;;14.00;99.90;;;;;;5094931;28;20062;-76
2023/04/02 09:56:29;;;;;;;0.70;0.40;;;12.90;99.90;;;;;;5097303;28;20049;-76
2023/04/02 09:59:03;;;;;;;0.77;0.77;;;12.50;99.90;;;;;;5095519;28;20068;-76
2023/04/02 10:01:31;;;;;;;0.95;0.52;;;12.30;99.90;;;;;;5095360;28;20030;-74
2023/04/02 10:03:58;;;;;;;0.10;0.10;;;12.60;99.90;;;;;;5098790;28;20081;-77
2023/04/02 10:06:25;;;;;;;;;;;13.20;99.90;;;;;;5098657;28;20768;-75
2023/04/02 10:08:50;;;;;;;0.17;0.17;;;12.90;99.90;;;;;;5098735;28;19962;-76
2023/04/02 10:11:26;;;;;;;0.30;0.30;;;13.30;99.90;;;;;;5100169;28;20118;-76
2023/04/02 10:14:02;;;;;;;0.43;0.43;;;13.90;99.90;;;;;;5094141;28;20035;-75
2023/04/02 10:16:39;;;;;;;3.67;0.52;;;14.60;99.90;;;;;;5097209;28;20042;-75
2023/04/02 10:19:36;;;;;;;0.17;0.17;;;14.90;99.00;;;;;;5091953;28;20804;-75
2023/04/02 10:22:16;;;;;;;0.03;0.03;;;13.80;98.20;;;;;;5093039;28;20047;-74
2023/04/02 10:24:42;;;;;;;0.10;0.10;;;13.10;99.90;;;;;;5096241;28;20029;-75
2023/04/02 10:27:24;;;;;;;0.47;0.47;;;12.80;99.90;;;;;;5096812;27;20055;-76
2023/04/02 10:30:06;;;;;;;1.85;1.70;;;12.10;99.90;;;;;;5090121;28;20277;-75
2023/04/02 10:32:56;;;;;;;1.20;0.77;;;11.60;99.90;;;;;;5091936;28;20032;-75
2023/04/02 10:35:36;;;;;;;0.08;0.08;;;10.80;99.90;;;;;;5094095;28;20031;-75
2023/04/02 10:38:24;;;;;;;3.17;0.47;;;10.70;99.90;;;;;;5092458;28;20028;-73
2023/04/02 10:40:58;;;;;;;0.85;0.85;;;10.80;99.90;;;;;;5090464;28;20885;-74
2023/04/02 10:43:37;;;;;;;0.22;0.22;;;11.20;99.90;;;;;;5096473;28;20058;-75
2023/04/02 10:46:11;;;;;;;0.20;0.20;;;11.60;99.90;;;;;;5093876;28;20024;-76
2023/04/02 10:49:14;;;;;;;0.00;0.00;;;11.90;99.90;;;;;;5088493;28;20024;-75
2023/04/02 10:51:44;;;;;;;0.82;0.82;;;12.30;99.90;;;;;;5092972;28;20028;-74
2023/04/02 10:54:35;;;;;;;0.10;0.10;;;12.40;99.90;;;;;;5087949;28;20032;-76
2023/04/02 10:57:12;;;;;;;0.55;0.55;;;13.10;99.10;;;;;;5095340;28;20570;-75
2023/04/02 11:00:04;;;;;;;0.22;0.22;;;13.10;96.30;;;;;;5088805;28;20035;-76
2023/04/02 11:02:36;;;;;;;0.35;0.30;;;13.20;94.90;;;;;;5092156;28;20036;-75
2023/04/02 11:05:11;;;;;;;0.00;0.00;;;14.00;95.60;;;;;;5095290;28;20027;-75
2023/04/02 11:08:15;;;;;;;0.10;0.10;;;14.30;93.40;;;;;;5097068;28;20020;-76
2023/04/02 11:10:46;;;;;;;0.10;0.10;;;14.00;93.80;;;;;;5062570;28;20040;-76
2023/04/02 11:13:37;;;;;;;0.17;0.17;;;13.80;94.00;;;;;;5100579;28;20030;-75
2023/04/02 11:16:03;;;;;;;0.00;0.00;;;13.90;94.20;;;;;;5095039;28;20490;-76
2023/04/02 11:18:37;;;;;;;0.77;0.77;;;14.00;94.90;;;;;;5095296;28;20027;-76
2023/04/02 11:21:04;;;;;;;0.10;0.10;;;14.40;96.80;;;;;;5093772;28;20016;-77
2023/04/02 11:23:53;;;;;;;0.68;0.68;;;14.60;95.70;;;;;;5095126;28;20153;-75
2023/04/02 11:26:37;;;;;;;1.48;1.20;;;14.30;96.60;;;;;;5095978;28;20039;-76
2023/04/02 11:29:20;;;;;;;7.32;0.98;;;14.60;96.00;;;;;;5095991;28;20436;-76
2023/04/02 11:31:48;;;;;;;0.30;0.30;;;13.70;96.10;;;;;;5077061;28;20566;-77
2023/04/02 11:34:48;;;;;;;0.10;0.10;;;13.00;97.40;;;;;;5095677;28;20495;-75
2023/04/02 11:37:38;;;;;;;0.10;0.10;;;12.10;98.80;;;;;;5087408;28;20120;-75
2023/04/02 11:40:09;;;;;;;0.03;0.03;;;11.30;97.90;;;;;;5093682;28;20020;-75
2023/04/02 11:42:42;;;;;;;0.25;0.25;;;11.30;98.50;;;;;;5089296;28;20591;-76
2023/04/02 11:45:24;;;;;;;0.10;0.10;;;11.40;99.00;;;;;;5098326;28;20028;-77
2023/04/02 11:48:06;;;;;;;0.20;0.20;;;11.40;98.50;;;;;;5096450;28;20024;-75
2023/04/02 11:50:45;;;;;;;0.82;0.55;;;11.50;97.30;;;;;;5093235;28;20137;-76
2023/04/02 11:53:10;;;;;;;0.10;0.10;;;11.10;96.00;;;;;;5099584;28;20122;-75
2023/04/02 11:55:37;;;;;;;0.10;0.10;;;11.70;96.20;;;;;;5100802;28;20095;-77
2023/04/02 11:58:05;;;;;;;0.20;0.20;;;11.90;95.30;;;;;;5097573;28;20024;-75
2023/04/02 12:01:00;;;;;;;0.40;0.40;;;12.10;95.50;;;;;;5100664;28;20035;-75
2023/04/02 12:03:55;;;;;;;0.00;0.00;;;12.20;95.40;;;;;;5078443;28;20400;-75
2023/04/02 12:06:38;;;;;;;0.00;0.00;;;12.60;96.60;;;;;;5093171;28;20044;-76
2023/04/02 12:09:23;;;;;;;0.10;0.10;;;12.60;96.40;;;;;;5100956;28;20100;-75
2023/04/02 12:11:55;;;;;;;0.10;0.10;;;12.60;96.00;;;;;;5095342;28;20028;-75
2023/04/02 12:14:47;;;;;;;1.10;0.95;;;13.60;97.90;;;;;;5087677;28;20066;-77
2023/04/02 12:17:20;;;;;;;0.47;0.40;;;13.70;94.40;;;;;;5097030;28;20423;-76
2023/04/02 12:19:51;;;;;;;0.40;0.40;;;12.90;95.40;;;;;;5095687;28;20743;-76
2023/04/02 12:22:23;;;;;;;0.80;0.80;;;12.40;95.20;;;;;;5091019;28;20038;-76
2023/04/02 12:24:52;;;;;;;0.50;0.50;;;12.20;96.70;;;;;;5098483;28;20033;-77
2023/04/02 12:27:26;;;;;;;0.10;0.10;;;12.10;96.50;;;;;;5095130;28;20028;-75
2023/04/02 12:29:53;;;;;;;0.75;0.70;;;12.00;95.10;;;;;;5095063;28;21120;-75
2023/04/02 12:32:26;;;;;;;0.65;0.65;;;12.10;96.00;;;;;;5096732;28;20502;-75
2023/04/02 12:34:54;;;;;;;0.95;0.95;;;12.10;95.80;;;;;;5102644;28;20130;-74
2023/04/02 12:37:26;;;;;;;0.13;0.13;;;11.90;96.00;;;;;;5094514;28;20115;-75
2023/04/02 12:39:55;;;;;;;0.85;0.85;;;12.00;96.60;;;;;;5104132;28;20540;-75
2023/04/02 12:42:29;;;;;;;0.10;0.10;;;11.80;95.70;;;;;;5101899;28;20687;-74
2023/04/02 12:44:55;;;;;;;0.38;0.38;;;11.60;95.60;;;;;;5098462;28;20752;-77
2023/04/02 12:47:21;;;;;;;0.13;0.13;;;11.60;95.60;;;;;;5096119;28;20051;-74
2023/04/02 12:49:47;;;;;;;0.00;0.00;;;11.80;95.60;;;;;;5101924;28;20771;-75
2023/04/02 12:52:21;;;;;;;0.10;0.10;;;11.80;96.00;;;;;;5103370;28;20028;-74
2023/04/02 12:54:59;;;;;;;0.08;0.08;;;11.80;95.10;;;;;;5105203;28;20097;-74
2023/04/02 12:57:24;;;;;;;0.68;0.40;;;11.70;95.30;;;;;;5103442;28;20028;-75
2023/04/02 12:59:51;;;;;;;0.10;0.10;;;11.50;96.50;;;;;;5104515;28;20079;-74
2023/04/02 13:02:25;;;;;;;0.63;0.63;;;11.60;97.20;;;;;;5104498;27;20043;-77
2023/04/02 13:04:55;;;;;;;1.05;0.98;;;11.80;97.20;;;;;;5104803;28;20110;-75
2023/04/02 13:07:26;;;;;;;0.40;0.40;;;11.80;97.30;;;;;;5104502;28;20570;-74
2023/04/02 13:09:54;;;;;;;1.30;0.57;;;11.50;96.90;;;;;;5101086;28;20020;-75
2023/04/02 13:12:34;;;;;;;0.00;0.00;;;11.50;98.00;;;;;;5100498;28;20073;-75
2023/04/02 13:15:29;;;;;;;0.52;0.30;;;11.40;98.30;;;;;;5099966;28;20031;-76
2023/04/02 13:18:19;;;;;;;0.00;0.00;;;11.70;98.00;;;;;;5101378;28;20039;-76
2023/04/02 13:20:59;;;;;;;0.10;0.10;;;11.80;96.80;;;;;;5097138;28;20055;-75
2023/04/02 13:23:28;;;;;;;0.10;0.10;;;12.30;95.70;;;;;;5100299;28;20063;-76
2023/04/02 13:26:01;;;;;;;0.10;0.10;;;12.60;95.20;;;;;;5104103;28;20035;-75
2023/04/02 13:28:27;;;;;;;0.10;0.10;;;12.90;96.30;;;;;;5103937;28;20015;-74
2023/04/02 13:30:53;;;;;;;0.10;0.10;;;12.50;96.50;;;;;;5104419;28;20597;-75
2023/04/02 13:33:19;;;;;;;6.68;1.67;;;11.90;97.80;;;;;;5103016;28;20054;-74
2023/04/02 13:35:45;;;;;;;0.20;0.20;;;11.60;98.00;;;;;;5104577;28;20746;-75